sensor_id;sensor_type;location;lat;lon;timestamp;pressure;altitude;pressure_sealevel;temperature;humidity
55757;BME280;41676;44.610;44.078;2022-08-19T00:01:05;99482.53;;;24.20;59.27
55757;BME280;41676;44.610;44.078;2022-08-19T00:06:06;99545.94;;;24.54;59.22
55757;BME280;41676;44.610;44.078;2022-08-19T00:11:26;99567.84;;;24.68;59.24
55757;BME280;41676;44.610;44.078;2022-08-19T00:16:27;99487.69;;;24.26;59.29
55757;BME280;41676;44.610;44.078;2022-08-19T00:21:28;99557.81;;;24.69;59.18
55757;BME280;41676;44.610;44.078;2022-08-19T00:26:29;99553.72;;;24.71;59.48
55757;BME280;41676;44.610;44.078;2022-08-19T00:31:30;99549.59;;;24.74;58.95
55757;BME280;41676;44.610;44.078;2022-08-19T00:36:31;99472.78;;;24.24;59.12
55757;BME280;41676;44.610;44.078;2022-08-19T00:41:33;99548.09;;;24.57;59.43
55757;BME280;41676;44.610;44.078;2022-08-19T00:46:36;99567.06;;;24.63;59.29
55757;BME280;41676;44.610;44.078;2022-08-19T00:51:37;99550.25;;;24.55;59.44
55757;BME280;41676;44.610;44.078;2022-08-19T00:56:38;99586.56;;;24.70;58.65
55757;BME280;41676;44.610;44.078;2022-08-19T01:01:42;99533.50;;;24.38;58.48
55757;BME280;41676;44.610;44.078;2022-08-19T01:06:44;99525.31;;;24.53;58.68
55757;BME280;41676;44.610;44.078;2022-08-19T01:11:45;99549.88;;;24.77;58.38
55757;BME280;41676;44.610;44.078;2022-08-19T01:16:46;99561.22;;;24.85;58.57
55757;BME280;41676;44.610;44.078;2022-08-19T01:21:52;99519.94;;;24.38;58.36
55757;BME280;41676;44.610;44.078;2022-08-19T01:26:55;99643.28;;;24.81;58.28
55757;BME280;41676;44.610;44.078;2022-08-19T01:31:57;99694.84;;;24.92;58.73
55757;BME280;41676;44.610;44.078;2022-08-19T01:36:58;99690.53;;;24.86;59.08
55757;BME280;41676;44.610;44.078;2022-08-19T01:41:59;99658.81;;;24.71;59.27
55757;BME280;41676;44.610;44.078;2022-08-19T01:47:03;99661.25;;;24.77;59.28
55757;BME280;41676;44.610;44.078;2022-08-19T01:52:05;99630.59;;;24.62;59.58
55757;BME280;41676;44.610;44.078;2022-08-19T01:57:09;99645.22;;;24.71;60.63
55757;BME280;41676;44.610;44.078;2022-08-19T02:02:11;99519.25;;;24.02;60.04
55757;BME280;41676;44.610;44.078;2022-08-19T02:07:12;99546.56;;;24.26;60.63
55757;BME280;41676;44.610;44.078;2022-08-19T02:12:13;99552.06;;;24.10;60.90
55757;BME280;41676;44.610;44.078;2022-08-19T02:17:14;99482.91;;;23.98;62.08
55757;BME280;41676;44.610;44.078;2022-08-19T02:22:15;99420.41;;;23.58;62.44
55757;BME280;41676;44.610;44.078;2022-08-19T02:27:16;99464.31;;;23.50;62.23
55757;BME280;41676;44.610;44.078;2022-08-19T02:32:18;99514.19;;;23.64;62.33
55757;BME280;41676;44.610;44.078;2022-08-19T02:37:22;99653.25;;;24.11;62.12
55757;BME280;41676;44.610;44.078;2022-08-19T02:42:41;99572.22;;;23.38;61.81
55757;BME280;41676;44.610;44.078;2022-08-19T02:47:43;99721.09;;;24.11;62.47
55757;BME280;41676;44.610;44.078;2022-08-19T02:52:43;99683.41;;;23.94;62.28
55757;BME280;41676;44.610;44.078;2022-08-19T02:57:45;99719.19;;;24.17;62.46
55757;BME280;41676;44.610;44.078;2022-08-19T03:02:47;99713.50;;;24.08;63.05
55757;BME280;41676;44.610;44.078;2022-08-19T03:07:49;99656.78;;;23.65;63.72
55757;BME280;41676;44.610;44.078;2022-08-19T03:12:50;99730.34;;;23.95;64.19
55757;BME280;41676;44.610;44.078;2022-08-19T03:17:50;99721.91;;;24.01;64.55
55757;BME280;41676;44.610;44.078;2022-08-19T03:22:51;99697.78;;;24.00;64.55
55757;BME280;41676;44.610;44.078;2022-08-19T03:27:52;99701.31;;;24.05;65.13
55757;BME280;41676;44.610;44.078;2022-08-19T03:32:53;99736.81;;;24.34;64.94
55757;BME280;41676;44.610;44.078;2022-08-19T03:37:53;99702.94;;;24.11;65.17
55757;BME280;41676;44.610;44.078;2022-08-19T03:42:54;99728.41;;;24.51;65.21
55757;BME280;41676;44.610;44.078;2022-08-19T03:47:55;99721.31;;;24.60;65.18
55757;BME280;41676;44.610;44.078;2022-08-19T03:52:56;99674.22;;;24.86;64.34
55757;BME280;41676;44.610;44.078;2022-08-19T03:57:57;99683.16;;;25.80;62.29
55757;BME280;41676;44.610;44.078;2022-08-19T04:02:58;99645.59;;;26.40;60.17
55757;BME280;41676;44.610;44.078;2022-08-19T04:07:58;99709.50;;;27.20;59.11
55757;BME280;41676;44.610;44.078;2022-08-19T04:13:01;99728.66;;;27.15;58.64
55757;BME280;41676;44.610;44.078;2022-08-19T04:18:02;99710.19;;;27.07;58.34
55757;BME280;41676;44.610;44.078;2022-08-19T04:23:02;99688.38;;;26.64;58.43
55757;BME280;41676;44.610;44.078;2022-08-19T04:28:03;99693.38;;;26.57;58.61
55757;BME280;41676;44.610;44.078;2022-08-19T04:33:04;99687.75;;;26.72;58.48
55757;BME280;41676;44.610;44.078;2022-08-19T04:38:06;99652.91;;;26.69;57.99
55757;BME280;41676;44.610;44.078;2022-08-19T04:43:07;99670.81;;;26.75;58.33
55757;BME280;41676;44.610;44.078;2022-08-19T04:48:09;99670.66;;;26.37;59.22
55757;BME280;41676;44.610;44.078;2022-08-19T04:53:10;99629.69;;;26.00;59.58
55757;BME280;41676;44.610;44.078;2022-08-19T04:58:11;99630.44;;;26.05;60.16
55757;BME280;41676;44.610;44.078;2022-08-19T05:03:12;99628.09;;;26.23;59.63
55757;BME280;41676;44.610;44.078;2022-08-19T05:08:15;99627.84;;;26.43;59.13
55757;BME280;41676;44.610;44.078;2022-08-19T05:13:22;99634.41;;;26.66;58.26
55757;BME280;41676;44.610;44.078;2022-08-19T05:18:24;99626.69;;;26.73;57.17
55757;BME280;41676;44.610;44.078;2022-08-19T05:23:43;99618.38;;;27.02;56.25
55757;BME280;41676;44.610;44.078;2022-08-19T05:28:44;99579.97;;;27.37;55.16
55757;BME280;41676;44.610;44.078;2022-08-19T05:33:45;99546.34;;;27.74;53.65
55757;BME280;41676;44.610;44.078;2022-08-19T05:38:46;99587.31;;;28.57;52.36
55757;BME280;41676;44.610;44.078;2022-08-19T05:43:47;99536.25;;;28.30;51.35
55757;BME280;41676;44.610;44.078;2022-08-19T05:48:50;99613.34;;;28.54;51.17
55757;BME280;41676;44.610;44.078;2022-08-19T05:53:51;99634.75;;;28.75;50.11
55757;BME280;41676;44.610;44.078;2022-08-19T05:58:52;99641.91;;;28.48;50.38
55757;BME280;41676;44.610;44.078;2022-08-19T06:03:54;99643.34;;;28.27;50.82
55757;BME280;41676;44.610;44.078;2022-08-19T06:08:56;99665.94;;;28.32;51.04
55757;BME280;41676;44.610;44.078;2022-08-19T06:13:57;99600.88;;;27.93;51.55
55757;BME280;41676;44.610;44.078;2022-08-19T06:19:01;99650.88;;;28.62;50.79
55757;BME280;41676;44.610;44.078;2022-08-19T06:24:04;99659.41;;;28.61;50.45
55757;BME280;41676;44.610;44.078;2022-08-19T06:29:06;99654.41;;;28.77;50.46
55757;BME280;41676;44.610;44.078;2022-08-19T06:34:08;99660.00;;;29.22;49.29
55757;BME280;41676;44.610;44.078;2022-08-19T06:39:15;99676.66;;;29.70;47.58
55757;BME280;41676;44.610;44.078;2022-08-19T06:44:20;99671.97;;;29.62;48.10
55757;BME280;41676;44.610;44.078;2022-08-19T06:49:22;99668.84;;;30.09;46.92
55757;BME280;41676;44.610;44.078;2022-08-19T06:54:23;99688.72;;;30.45;46.06
55757;BME280;41676;44.610;44.078;2022-08-19T06:59:24;99673.34;;;30.36;45.92
55757;BME280;41676;44.610;44.078;2022-08-19T07:04:30;99667.25;;;30.47;44.94
55757;BME280;41676;44.610;44.078;2022-08-19T07:09:38;99601.44;;;30.30;44.92
55757;BME280;41676;44.610;44.078;2022-08-19T07:14:40;99632.31;;;30.62;44.15
55757;BME280;41676;44.610;44.078;2022-08-19T07:19:41;99704.41;;;30.62;44.96
55757;BME280;41676;44.610;44.078;2022-08-19T07:24:43;99687.72;;;30.41;45.01
55757;BME280;41676;44.610;44.078;2022-08-19T07:29:44;99707.47;;;30.61;44.59
55757;BME280;41676;44.610;44.078;2022-08-19T07:34:46;99631.34;;;30.49;43.75
55757;BME280;41676;44.610;44.078;2022-08-19T07:39:47;99703.63;;;31.45;43.22
55757;BME280;41676;44.610;44.078;2022-08-19T07:44:48;99698.25;;;30.97;43.28
55757;BME280;41676;44.610;44.078;2022-08-19T07:49:49;99673.38;;;31.02;42.70
55757;BME280;41676;44.610;44.078;2022-08-19T07:54:49;99675.53;;;31.40;42.76
55757;BME280;41676;44.610;44.078;2022-08-19T07:59:50;99653.72;;;31.17;41.90
55757;BME280;41676;44.610;44.078;2022-08-19T08:04:51;99691.84;;;31.45;41.61
55757;BME280;41676;44.610;44.078;2022-08-19T08:10:10;99696.81;;;31.95;41.40
55757;BME280;41676;44.610;44.078;2022-08-19T08:15:14;99704.91;;;31.91;40.32
55757;BME280;41676;44.610;44.078;2022-08-19T08:20:17;99702.91;;;32.18;40.96
55757;BME280;41676;44.610;44.078;2022-08-19T08:25:21;99649.78;;;32.05;40.38
55757;BME280;41676;44.610;44.078;2022-08-19T08:30:24;99644.25;;;32.14;40.06
55757;BME280;41676;44.610;44.078;2022-08-19T08:35:25;99688.50;;;32.68;40.31
55757;BME280;41676;44.610;44.078;2022-08-19T08:40:30;99625.03;;;32.43;40.25
55757;BME280;41676;44.610;44.078;2022-08-19T08:45:35;99610.53;;;31.96;39.59
55757;BME280;41676;44.610;44.078;2022-08-19T08:50:42;99687.44;;;32.04;40.09
55757;BME280;41676;44.610;44.078;2022-08-19T08:55:44;99674.19;;;31.89;40.41
55757;BME280;41676;44.610;44.078;2022-08-19T09:00:48;99598.03;;;31.60;39.80
55757;BME280;41676;44.610;44.078;2022-08-19T09:10:52;99647.91;;;31.27;41.06
55757;BME280;41676;44.610;44.078;2022-08-19T09:15:57;99657.59;;;31.33;41.47
55757;BME280;41676;44.610;44.078;2022-08-19T09:21:01;99632.91;;;31.16;41.08
55757;BME280;41676;44.610;44.078;2022-08-19T09:26:08;99637.44;;;31.38;40.22
55757;BME280;41676;44.610;44.078;2022-08-19T09:31:14;99563.00;;;31.48;38.05
55757;BME280;41676;44.610;44.078;2022-08-19T09:36:17;99585.97;;;31.99;38.00
55757;BME280;41676;44.610;44.078;2022-08-19T09:41:21;99597.25;;;32.45;38.15
55757;BME280;41676;44.610;44.078;2022-08-19T09:46:27;99532.66;;;32.21;37.74
55757;BME280;41676;44.610;44.078;2022-08-19T09:51:28;99606.88;;;32.81;37.94
55757;BME280;41676;44.610;44.078;2022-08-19T09:56:30;99548.97;;;32.56;37.62
55757;BME280;41676;44.610;44.078;2022-08-19T10:01:32;99571.00;;;32.98;36.49
55757;BME280;41676;44.610;44.078;2022-08-19T10:06:33;99581.06;;;33.48;36.83
55757;BME280;41676;44.610;44.078;2022-08-19T10:11:35;99578.69;;;33.59;36.45
55757;BME280;41676;44.610;44.078;2022-08-19T10:16:36;99576.53;;;33.64;36.78
55757;BME280;41676;44.610;44.078;2022-08-19T10:21:37;99571.91;;;33.56;35.88
55757;BME280;41676;44.610;44.078;2022-08-19T10:26:40;99542.69;;;33.31;35.15
55757;BME280;41676;44.610;44.078;2022-08-19T10:31:47;99575.97;;;33.71;35.39
55757;BME280;41676;44.610;44.078;2022-08-19T10:36:48;99578.41;;;33.73;35.03
55757;BME280;41676;44.610;44.078;2022-08-19T10:41:50;99503.97;;;33.36;35.13
55757;BME280;41676;44.610;44.078;2022-08-19T10:46:51;99567.03;;;33.74;35.39
55757;BME280;41676;44.610;44.078;2022-08-19T10:51:52;99588.84;;;33.79;35.49
55757;BME280;41676;44.610;44.078;2022-08-19T10:57:11;99522.69;;;33.09;35.33
55757;BME280;41676;44.610;44.078;2022-08-19T11:02:12;99593.75;;;33.40;35.52
55757;BME280;41676;44.610;44.078;2022-08-19T11:07:13;99605.25;;;33.42;35.39
55757;BME280;41676;44.610;44.078;2022-08-19T11:12:14;99603.66;;;33.21;35.77
55757;BME280;41676;44.610;44.078;2022-08-19T11:17:16;99610.16;;;33.37;35.33
55757;BME280;41676;44.610;44.078;2022-08-19T11:22:16;99470.13;;;32.48;35.59
55757;BME280;41676;44.610;44.078;2022-08-19T11:27:17;99566.28;;;33.19;35.58
55757;BME280;41676;44.610;44.078;2022-08-19T11:32:18;99583.69;;;33.45;35.37
55757;BME280;41676;44.610;44.078;2022-08-19T11:37:19;99604.25;;;33.26;35.67
55757;BME280;41676;44.610;44.078;2022-08-19T11:42:20;99560.59;;;32.62;35.63
55757;BME280;41676;44.610;44.078;2022-08-19T11:47:39;99543.63;;;32.30;35.96
55757;BME280;41676;44.610;44.078;2022-08-19T11:52:40;99558.47;;;32.38;36.16
55757;BME280;41676;44.610;44.078;2022-08-19T11:57:41;99601.56;;;32.76;35.80
55757;BME280;41676;44.610;44.078;2022-08-19T12:02:43;99586.88;;;32.71;36.54
55757;BME280;41676;44.610;44.078;2022-08-19T12:07:44;99573.72;;;32.26;36.86
55757;BME280;41676;44.610;44.078;2022-08-19T12:12:46;99593.00;;;32.18;37.20
55757;BME280;41676;44.610;44.078;2022-08-19T12:17:47;99551.75;;;31.79;37.82
55757;BME280;41676;44.610;44.078;2022-08-19T12:22:48;99566.41;;;32.31;37.86
55757;BME280;41676;44.610;44.078;2022-08-19T12:27:49;99580.44;;;32.67;37.09
55757;BME280;41676;44.610;44.078;2022-08-19T12:32:50;99572.19;;;32.67;37.82
55757;BME280;41676;44.610;44.078;2022-08-19T12:37:51;99552.06;;;32.55;37.62
55757;BME280;41676;44.610;44.078;2022-08-19T12:42:53;99568.41;;;32.51;38.13
55757;BME280;41676;44.610;44.078;2022-08-19T12:47:54;99552.06;;;32.55;38.12
55757;BME280;41676;44.610;44.078;2022-08-19T12:52:56;99568.91;;;32.53;37.21
55757;BME280;41676;44.610;44.078;2022-08-19T12:57:57;99560.19;;;32.42;37.34
55757;BME280;41676;44.610;44.078;2022-08-19T13:02:58;99550.03;;;32.43;36.98
55757;BME280;41676;44.610;44.078;2022-08-19T13:08:00;99471.91;;;32.23;37.39
55757;BME280;41676;44.610;44.078;2022-08-19T13:13:03;99475.88;;;32.34;37.90
55757;BME280;41676;44.610;44.078;2022-08-19T13:18:08;99553.13;;;32.83;38.12
55757;BME280;41676;44.610;44.078;2022-08-19T13:23:09;99546.03;;;32.82;38.27
55757;BME280;41676;44.610;44.078;2022-08-19T13:28:10;99473.19;;;32.25;38.19
55757;BME280;41676;44.610;44.078;2022-08-19T13:33:11;99455.88;;;32.04;39.09
55757;BME280;41676;44.610;44.078;2022-08-19T13:38:18;99566.69;;;32.67;38.92
55757;BME280;41676;44.610;44.078;2022-08-19T13:43:22;99559.38;;;32.42;39.73
55757;BME280;41676;44.610;44.078;2022-08-19T13:48:23;99565.22;;;32.49;39.97
55757;BME280;41676;44.610;44.078;2022-08-19T13:53:26;99554.34;;;32.53;40.23
55757;BME280;41676;44.610;44.078;2022-08-19T13:58:27;99551.00;;;32.68;39.89
55757;BME280;41676;44.610;44.078;2022-08-19T14:03:28;99515.78;;;32.61;40.13
55757;BME280;41676;44.610;44.078;2022-08-19T14:08:29;99410.69;;;31.93;40.53
55757;BME280;41676;44.610;44.078;2022-08-19T14:13:32;99527.53;;;32.70;40.29
55757;BME280;41676;44.610;44.078;2022-08-19T14:18:34;99529.53;;;32.61;40.29
55757;BME280;41676;44.610;44.078;2022-08-19T14:23:36;99449.03;;;32.10;40.68
55757;BME280;41676;44.610;44.078;2022-08-19T14:28:39;99504.03;;;32.31;41.06
55757;BME280;41676;44.610;44.078;2022-08-19T14:33:42;99556.16;;;32.40;41.39
55757;BME280;41676;44.610;44.078;2022-08-19T14:38:43;99542.34;;;32.27;41.58
55757;BME280;41676;44.610;44.078;2022-08-19T14:43:46;99523.88;;;32.07;41.93
55757;BME280;41676;44.610;44.078;2022-08-19T14:48:49;99368.47;;;31.00;42.74
55757;BME280;41676;44.610;44.078;2022-08-19T14:53:50;99489.47;;;31.71;42.46
55757;BME280;41676;44.610;44.078;2022-08-19T14:58:51;99516.56;;;31.73;43.18
55757;BME280;41676;44.610;44.078;2022-08-19T15:03:52;99502.88;;;31.64;43.25
55757;BME280;41676;44.610;44.078;2022-08-19T15:08:56;99466.03;;;31.27;43.86
55757;BME280;41676;44.610;44.078;2022-08-19T15:13:56;99466.03;;;31.18;44.38
55757;BME280;41676;44.610;44.078;2022-08-19T15:18:58;99492.34;;;31.19;44.55
55757;BME280;41676;44.610;44.078;2022-08-19T15:24:00;99519.13;;;31.05;44.60
55757;BME280;41676;44.610;44.078;2022-08-19T15:29:03;99502.38;;;30.80;45.25
55757;BME280;41676;44.610;44.078;2022-08-19T15:34:04;99512.41;;;30.93;44.85
55757;BME280;41676;44.610;44.078;2022-08-19T15:39:06;99477.84;;;30.40;45.58
55757;BME280;41676;44.610;44.078;2022-08-19T15:44:11;99536.22;;;30.50;45.53
55757;BME280;41676;44.610;44.078;2022-08-19T15:49:15;99539.06;;;30.27;45.11
55757;BME280;41676;44.610;44.078;2022-08-19T15:54:18;99549.31;;;30.04;45.34
55757;BME280;41676;44.610;44.078;2022-08-19T15:59:22;99539.66;;;29.75;45.28
55757;BME280;41676;44.610;44.078;2022-08-19T16:04:42;99544.69;;;29.51;45.49
55757;BME280;41676;44.610;44.078;2022-08-19T16:10:01;99568.00;;;29.48;46.04
55757;BME280;41676;44.610;44.078;2022-08-19T16:15:02;99562.13;;;29.32;46.26
55757;BME280;41676;44.610;44.078;2022-08-19T16:20:05;99583.13;;;29.23;46.34
55757;BME280;41676;44.610;44.078;2022-08-19T16:25:09;99592.19;;;29.10;46.70
55757;BME280;41676;44.610;44.078;2022-08-19T16:30:11;99614.28;;;29.00;46.82
55757;BME280;41676;44.610;44.078;2022-08-19T16:35:11;99593.84;;;28.83;46.91
55757;BME280;41676;44.610;44.078;2022-08-19T16:40:12;99612.19;;;28.83;46.33
55757;BME280;41676;44.610;44.078;2022-08-19T16:45:13;99634.47;;;28.76;46.19
55757;BME280;41676;44.610;44.078;2022-08-19T16:50:15;99567.72;;;28.13;46.23
55757;BME280;41676;44.610;44.078;2022-08-19T16:55:18;99571.16;;;28.05;46.89
55757;BME280;41676;44.610;44.078;2022-08-19T17:00:21;99668.19;;;28.44;47.07
55757;BME280;41676;44.610;44.078;2022-08-19T17:05:22;99595.50;;;27.88;48.05
55757;BME280;41676;44.610;44.078;2022-08-19T17:10:24;99654.78;;;28.15;48.80
55757;BME280;41676;44.610;44.078;2022-08-19T17:15:24;99564.56;;;27.46;49.79
55757;BME280;41676;44.610;44.078;2022-08-19T17:20:25;99607.31;;;27.50;49.60
55757;BME280;41676;44.610;44.078;2022-08-19T17:25:29;99674.47;;;27.65;50.10
55757;BME280;41676;44.610;44.078;2022-08-19T17:30:33;99681.72;;;27.70;51.20
55757;BME280;41676;44.610;44.078;2022-08-19T17:35:34;99685.66;;;27.64;51.55
55757;BME280;41676;44.610;44.078;2022-08-19T17:40:35;99678.03;;;27.47;51.22
55757;BME280;41676;44.610;44.078;2022-08-19T17:45:37;99712.75;;;27.41;51.23
55757;BME280;41676;44.610;44.078;2022-08-19T17:50:39;99699.03;;;27.27;51.51
55757;BME280;41676;44.610;44.078;2022-08-19T17:55:40;99717.25;;;27.32;51.56
55757;BME280;41676;44.610;44.078;2022-08-19T18:00:41;99717.25;;;27.32;51.55
55757;BME280;41676;44.610;44.078;2022-08-19T18:05:42;99723.28;;;27.29;52.20
55757;BME280;41676;44.610;44.078;2022-08-19T18:10:43;99729.13;;;27.22;52.60
55757;BME280;41676;44.610;44.078;2022-08-19T18:15:44;99727.59;;;27.11;52.40
55757;BME280;41676;44.610;44.078;2022-08-19T18:20:46;99677.19;;;26.66;53.22
55757;BME280;41676;44.610;44.078;2022-08-19T18:25:48;99750.63;;;27.00;53.58
55757;BME280;41676;44.610;44.078;2022-08-19T18:30:48;99748.63;;;26.86;52.90
55757;BME280;41676;44.610;44.078;2022-08-19T18:35:50;99780.84;;;26.79;52.95
55757;BME280;41676;44.610;44.078;2022-08-19T18:40:52;99628.44;;;25.87;53.76
55757;BME280;41676;44.610;44.078;2022-08-19T18:46:11;99758.59;;;26.72;54.41
55757;BME280;41676;44.610;44.078;2022-08-19T18:51:44;99727.22;;;26.46;54.48
55757;BME280;41676;44.610;44.078;2022-08-19T18:56:45;99742.19;;;26.48;55.11
55757;BME280;41676;44.610;44.078;2022-08-19T19:01:47;99730.00;;;26.40;55.62
55757;BME280;41676;44.610;44.078;2022-08-19T19:06:51;99701.13;;;26.15;55.43
55757;BME280;41676;44.610;44.078;2022-08-19T19:11:55;99725.75;;;26.29;55.74
55757;BME280;41676;44.610;44.078;2022-08-19T19:17:02;99748.50;;;26.44;56.40
55757;BME280;41676;44.610;44.078;2022-08-19T19:22:04;99731.97;;;26.35;55.89
55757;BME280;41676;44.610;44.078;2022-08-19T19:27:05;99737.66;;;26.38;56.04
55757;BME280;41676;44.610;44.078;2022-08-19T19:32:14;99694.69;;;26.06;56.21
55757;BME280;41676;44.610;44.078;2022-08-19T19:37:16;99739.91;;;26.31;55.62
55757;BME280;41676;44.610;44.078;2022-08-19T19:42:19;99715.53;;;26.16;56.01
55757;BME280;41676;44.610;44.078;2022-08-19T19:47:21;99703.06;;;26.10;55.32
55757;BME280;41676;44.610;44.078;2022-08-19T19:52:23;99709.19;;;26.26;55.50
55757;BME280;41676;44.610;44.078;2022-08-19T19:57:26;99692.03;;;25.96;56.13
55757;BME280;41676;44.610;44.078;2022-08-19T20:02:26;99645.59;;;25.53;56.89
55757;BME280;41676;44.610;44.078;2022-08-19T20:07:27;99687.50;;;25.86;56.97
55757;BME280;41676;44.610;44.078;2022-08-19T20:12:47;99687.50;;;25.86;56.97
55757;BME280;41676;44.610;44.078;2022-08-19T20:17:47;99689.44;;;25.76;57.62
55757;BME280;41676;44.610;44.078;2022-08-19T20:22:48;99666.50;;;25.58;58.16
55757;BME280;41676;44.610;44.078;2022-08-19T20:27:49;99667.56;;;25.57;59.02
55757;BME280;41676;44.610;44.078;2022-08-19T20:32:50;99605.88;;;25.18;59.34
55757;BME280;41676;44.610;44.078;2022-08-19T20:37:52;99526.25;;;24.73;60.61
55757;BME280;41676;44.610;44.078;2022-08-19T20:42:54;99542.81;;;24.76;61.35
55757;BME280;41676;44.610;44.078;2022-08-19T20:47:55;99661.34;;;25.51;62.55
55757;BME280;41676;44.610;44.078;2022-08-19T20:52:56;99664.69;;;25.43;63.09
55757;BME280;41676;44.610;44.078;2022-08-19T20:57:57;99680.34;;;25.61;64.78
55757;BME280;41676;44.610;44.078;2022-08-19T21:02:58;99721.03;;;25.77;65.78
55757;BME280;41676;44.610;44.078;2022-08-19T21:07:59;99724.78;;;25.81;66.84
55757;BME280;41676;44.610;44.078;2022-08-19T21:13:00;99716.94;;;25.74;68.73
55757;BME280;41676;44.610;44.078;2022-08-19T21:18:03;99726.47;;;25.77;69.04
55757;BME280;41676;44.610;44.078;2022-08-19T21:23:09;99737.09;;;25.73;73.07
55757;BME280;41676;44.610;44.078;2022-08-19T21:28:11;99701.78;;;25.63;71.79
55757;BME280;41676;44.610;44.078;2022-08-19T21:33:12;99659.84;;;25.40;72.44
55757;BME280;41676;44.610;44.078;2022-08-19T21:38:12;99678.00;;;25.44;73.50
55757;BME280;41676;44.610;44.078;2022-08-19T21:43:14;99698.09;;;25.48;74.07
55757;BME280;41676;44.610;44.078;2022-08-19T21:48:15;99689.97;;;25.43;74.78
55757;BME280;41676;44.610;44.078;2022-08-19T21:53:17;99699.22;;;25.42;75.21
55757;BME280;41676;44.610;44.078;2022-08-19T21:58:18;99682.41;;;25.35;75.27
55757;BME280;41676;44.610;44.078;2022-08-19T22:03:19;99692.97;;;25.42;75.65
55757;BME280;41676;44.610;44.078;2022-08-19T22:08:20;99694.34;;;25.39;75.91
55757;BME280;41676;44.610;44.078;2022-08-19T22:13:21;99665.09;;;25.21;76.37
55757;BME280;41676;44.610;44.078;2022-08-19T22:18:22;99686.28;;;25.24;77.00
55757;BME280;41676;44.610;44.078;2022-08-19T22:23:23;99572.31;;;24.44;77.54
55757;BME280;41676;44.610;44.078;2022-08-19T22:28:24;99677.16;;;24.94;77.69
55757;BME280;41676;44.610;44.078;2022-08-19T22:33:25;99700.81;;;24.99;78.35
55757;BME280;41676;44.610;44.078;2022-08-19T22:38:27;99686.72;;;24.87;78.47
55757;BME280;41676;44.610;44.078;2022-08-19T22:43:29;99698.09;;;24.94;79.81
55757;BME280;41676;44.610;44.078;2022-08-19T22:48:31;99685.66;;;24.82;80.06
55757;BME280;41676;44.610;44.078;2022-08-19T22:53:39;99707.59;;;24.96;81.76
55757;BME280;41676;44.610;44.078;2022-08-19T22:58:40;99632.53;;;24.56;79.95
55757;BME280;41676;44.610;44.078;2022-08-19T23:03:41;99709.44;;;25.11;80.47
55757;BME280;41676;44.610;44.078;2022-08-19T23:08:43;99712.97;;;25.12;80.36
55757;BME280;41676;44.610;44.078;2022-08-19T23:13:44;99700.56;;;24.90;81.23
55757;BME280;41676;44.610;44.078;2022-08-19T23:18:46;99724.94;;;25.05;81.55
55757;BME280;41676;44.610;44.078;2022-08-19T23:23:47;99729.34;;;24.96;82.64
55757;BME280;41676;44.610;44.078;2022-08-19T23:28:48;99682.25;;;24.46;84.10
55757;BME280;41676;44.610;44.078;2022-08-19T23:34:07;99714.28;;;24.39;86.00
55757;BME280;41676;44.610;44.078;2022-08-19T23:39:08;99717.28;;;24.27;88.02
55757;BME280;41676;44.610;44.078;2022-08-19T23:44:09;99731.41;;;24.29;88.22
55757;BME280;41676;44.610;44.078;2022-08-19T23:49:09;99759.88;;;24.37;89.49
55757;BME280;41676;44.610;44.078;2022-08-19T23:54:10;99677.44;;;23.82;89.68
55757;BME280;41676;44.610;44.078;2022-08-19T23:59:11;99736.31;;;24.12;90.69
